KPEZ

Pleasanton Municipal Airport

Pleasanton, Texas, USA
METAR KPEZ 181455Z AUTO 06003KT 10SM BKN048 OVC050 02/M08 A3055 RMK AO2 T00201082
Observed Flight Rules
Jan-18 @ 14:55 UTC (27 minutes ago) Visual Flight Rules
Wind Visibility Clouds
60° at 3 knots 10 miles
  • Broken at 4,800' AGL
  • Overcast at 5,000' AGL
Temperatures Readings
Current 2°C / 36°F
Dewpoint -8°C / 18°F
Humidity 48%
Altimeter 30.55" Hg
Pressure 1035 hPa
Elevation 132
METAR KPEZ 181455Z AUTO 06003KT 10SM BKN048 OVC050 02/M08 A3055 RMK AO2 T00201082
Observed Flight Rules
Jan-18 @ 14:55 UTC
(27 minutes ago)
VFR
Wind Visibility
60° at 3 knots 10 miles
Clouds
  • Broken at 4,800' AGL
  • Overcast at 5,000' AGL
Temperature Dewpoint
2°C / 36°F -8°C / 18°F
Humidity Altimeter Pressure
48% 30.55" Hg 1035 hPa